<?xml version="1.0" encoding="UTF-8" standalone="no" ?>
<gpx xmlns="http://www.topografix.com/GPX/1/1" xmlns:xsi="http://www.w3.org/2001/XMLSchema-instance" xsi:schemaLocation="http://www.topografix.com/GPX/1/1 http://www.topografix.com/GPX/1/1/gpx.xsd" version="1.1" creator="VisuGPX - https://www.visugpx.com">
  <metadata>
    <name>rando etauliers 9.2 km</name>
    <desc><![CDATA[[url]https://rando-pedestre-33.over-blog.com/2023/05/rando-etauliers-9.2-km.html
[/url]]]></desc>
  </metadata>
  <trk>
    <name><![CDATA[rando etauliers 9.2 km]]></name>
    <trkseg>
      <trkpt lat="45.22481" lon="-0.57348">
        <ele>9</ele>
        <time>2023-01-09T07:12:40Z</time>
      </trkpt>
      <trkpt lat="45.22468" lon="-0.57318">
        <ele>9</ele>
        <time>2023-01-09T07:13:13Z</time>
      </trkpt>
      <trkpt lat="45.22394" lon="-0.57298">
        <ele>8</ele>
        <time>2023-01-09T07:14:54Z</time>
      </trkpt>
      <trkpt lat="45.22406" lon="-0.56987">
        <ele>11</ele>
        <time>2023-01-09T07:19:46Z</time>
      </trkpt>
      <trkpt lat="45.22439" lon="-0.56965">
        <ele>10</ele>
        <time>2023-01-09T07:20:35Z</time>
      </trkpt>
      <trkpt lat="45.2246" lon="-0.5691">
        <ele>8</ele>
        <time>2023-01-09T07:21:34Z</time>
      </trkpt>
      <trkpt lat="45.2247" lon="-0.5684">
        <ele>9</ele>
        <time>2023-01-09T07:22:41Z</time>
      </trkpt>
      <trkpt lat="45.22468" lon="-0.56787">
        <ele>10</ele>
        <time>2023-01-09T07:23:31Z</time>
      </trkpt>
      <trkpt lat="45.22463" lon="-0.56745">
        <ele>11</ele>
        <time>2023-01-09T07:24:11Z</time>
      </trkpt>
      <trkpt lat="45.22445" lon="-0.56714">
        <ele>12</ele>
        <time>2023-01-09T07:24:49Z</time>
      </trkpt>
      <trkpt lat="45.22434" lon="-0.5667">
        <ele>12</ele>
        <time>2023-01-09T07:25:33Z</time>
      </trkpt>
      <trkpt lat="45.22415" lon="-0.56644">
        <ele>13</ele>
        <time>2023-01-09T07:26:08Z</time>
      </trkpt>
      <trkpt lat="45.22429" lon="-0.56613">
        <ele>13</ele>
        <time>2023-01-09T07:26:42Z</time>
      </trkpt>
      <trkpt lat="45.2246" lon="-0.56585">
        <ele>13</ele>
        <time>2023-01-09T07:27:31Z</time>
      </trkpt>
      <trkpt lat="45.22495" lon="-0.56561">
        <ele>14</ele>
        <time>2023-01-09T07:28:23Z</time>
      </trkpt>
      <trkpt lat="45.22528" lon="-0.56537">
        <ele>14</ele>
        <time>2023-01-09T07:29:13Z</time>
      </trkpt>
      <trkpt lat="45.22556" lon="-0.56508">
        <ele>15</ele>
        <time>2023-01-09T07:29:59Z</time>
      </trkpt>
      <trkpt lat="45.22576" lon="-0.56481">
        <ele>15</ele>
        <time>2023-01-09T07:30:36Z</time>
      </trkpt>
      <trkpt lat="45.22603" lon="-0.56461">
        <ele>17</ele>
        <time>2023-01-09T07:31:16Z</time>
      </trkpt>
      <trkpt lat="45.22588" lon="-0.5638">
        <ele>18</ele>
        <time>2023-01-09T07:32:35Z</time>
      </trkpt>
      <trkpt lat="45.22586" lon="-0.56317">
        <ele>19</ele>
        <time>2023-01-09T07:33:34Z</time>
      </trkpt>
      <trkpt lat="45.22602" lon="-0.56121">
        <ele>21</ele>
        <time>2023-01-09T07:36:40Z</time>
      </trkpt>
      <trkpt lat="45.22592" lon="-0.55907">
        <ele>21</ele>
        <time>2023-01-09T07:40:01Z</time>
      </trkpt>
      <trkpt lat="45.22567" lon="-0.55716">
        <ele>22</ele>
        <time>2023-01-09T07:43:04Z</time>
      </trkpt>
      <trkpt lat="45.22531" lon="-0.55743">
        <ele>20</ele>
        <time>2023-01-09T07:43:58Z</time>
      </trkpt>
      <trkpt lat="45.22503" lon="-0.55752">
        <ele>18</ele>
        <time>2023-01-09T07:44:37Z</time>
      </trkpt>
      <trkpt lat="45.22488" lon="-0.55769">
        <ele>17</ele>
        <time>2023-01-09T07:45:02Z</time>
      </trkpt>
      <trkpt lat="45.22478" lon="-0.55795">
        <ele>17</ele>
        <time>2023-01-09T07:45:30Z</time>
      </trkpt>
      <trkpt lat="45.22394" lon="-0.55857">
        <ele>12</ele>
        <time>2023-01-09T07:47:36Z</time>
      </trkpt>
      <trkpt lat="45.22395" lon="-0.55886">
        <ele>12</ele>
        <time>2023-01-09T07:48:04Z</time>
      </trkpt>
      <trkpt lat="45.22369" lon="-0.56013">
        <ele>11</ele>
        <time>2023-01-09T07:50:08Z</time>
      </trkpt>
      <trkpt lat="45.22255" lon="-0.56162">
        <ele>12</ele>
        <time>2023-01-09T07:53:35Z</time>
      </trkpt>
      <trkpt lat="45.22217" lon="-0.56165">
        <ele>12</ele>
        <time>2023-01-09T07:54:26Z</time>
      </trkpt>
      <trkpt lat="45.22109" lon="-0.56335">
        <ele>9</ele>
        <time>2023-01-09T07:58:01Z</time>
      </trkpt>
      <trkpt lat="45.22094" lon="-0.56346">
        <ele>9</ele>
        <time>2023-01-09T07:58:23Z</time>
      </trkpt>
      <trkpt lat="45.22017" lon="-0.56294">
        <ele>9</ele>
        <time>2023-01-09T08:00:17Z</time>
      </trkpt>
      <trkpt lat="45.21981" lon="-0.56247">
        <ele>9</ele>
        <time>2023-01-09T08:01:22Z</time>
      </trkpt>
      <trkpt lat="45.21954" lon="-0.56232">
        <ele>10</ele>
        <time>2023-01-09T08:02:01Z</time>
      </trkpt>
      <trkpt lat="45.21926" lon="-0.56283">
        <ele>10</ele>
        <time>2023-01-09T08:03:02Z</time>
      </trkpt>
      <trkpt lat="45.21935" lon="-0.56535">
        <ele>9</ele>
        <time>2023-01-09T08:06:59Z</time>
      </trkpt>
      <trkpt lat="45.21974" lon="-0.56669">
        <ele>8</ele>
        <time>2023-01-09T08:09:15Z</time>
      </trkpt>
      <trkpt lat="45.2174" lon="-0.56905">
        <ele>12</ele>
        <time>2023-01-09T08:15:38Z</time>
      </trkpt>
      <trkpt lat="45.21378" lon="-0.57121">
        <ele>14</ele>
        <time>2023-01-09T08:24:22Z</time>
      </trkpt>
      <trkpt lat="45.21162" lon="-0.5725">
        <ele>19</ele>
        <time>2023-01-09T08:29:35Z</time>
      </trkpt>
      <trkpt lat="45.20887" lon="-0.57403">
        <ele>20</ele>
        <time>2023-01-09T08:36:09Z</time>
      </trkpt>
      <trkpt lat="45.21063" lon="-0.57999">
        <ele>15</ele>
        <time>2023-01-09T08:46:17Z</time>
      </trkpt>
      <trkpt lat="45.21069" lon="-0.58028">
        <ele>15</ele>
        <time>2023-01-09T08:46:45Z</time>
      </trkpt>
      <trkpt lat="45.21137" lon="-0.57987">
        <ele>14</ele>
        <time>2023-01-09T08:48:24Z</time>
      </trkpt>
      <trkpt lat="45.2129" lon="-0.58506">
        <ele>16</ele>
        <time>2023-01-09T08:57:13Z</time>
      </trkpt>
      <trkpt lat="45.21429" lon="-0.58987">
        <ele>9</ele>
        <time>2023-01-09T09:05:22Z</time>
      </trkpt>
      <trkpt lat="45.21472" lon="-0.59083">
        <ele>7</ele>
        <time>2023-01-09T09:07:08Z</time>
      </trkpt>
      <trkpt lat="45.21652" lon="-0.59312">
        <ele>6</ele>
        <time>2023-01-09T09:12:31Z</time>
      </trkpt>
      <trkpt lat="45.21826" lon="-0.59456">
        <ele>5</ele>
        <time>2023-01-09T09:17:00Z</time>
      </trkpt>
      <trkpt lat="45.21885" lon="-0.59518">
        <ele>4</ele>
        <time>2023-01-09T09:18:38Z</time>
      </trkpt>
      <trkpt lat="45.21923" lon="-0.59555">
        <ele>4</ele>
        <time>2023-01-09T09:19:39Z</time>
      </trkpt>
      <trkpt lat="45.21945" lon="-0.59592">
        <ele>5</ele>
        <time>2023-01-09T09:20:25Z</time>
      </trkpt>
      <trkpt lat="45.22111" lon="-0.59749">
        <ele>3</ele>
        <time>2023-01-09T09:24:51Z</time>
      </trkpt>
      <trkpt lat="45.22352" lon="-0.59365">
        <ele>2</ele>
        <time>2023-01-09T09:32:54Z</time>
      </trkpt>
      <trkpt lat="45.22401" lon="-0.59286">
        <ele>3</ele>
        <time>2023-01-09T09:34:33Z</time>
      </trkpt>
      <trkpt lat="45.22445" lon="-0.59166">
        <ele>3</ele>
        <time>2023-01-09T09:36:40Z</time>
      </trkpt>
      <trkpt lat="45.22468" lon="-0.59054">
        <ele>4</ele>
        <time>2023-01-09T09:38:30Z</time>
      </trkpt>
      <trkpt lat="45.22529" lon="-0.58687">
        <ele>4</ele>
        <time>2023-01-09T09:44:25Z</time>
      </trkpt>
      <trkpt lat="45.22545" lon="-0.58656">
        <ele>4</ele>
        <time>2023-01-09T09:45:01Z</time>
      </trkpt>
      <trkpt lat="45.22559" lon="-0.58615">
        <ele>4</ele>
        <time>2023-01-09T09:45:43Z</time>
      </trkpt>
      <trkpt lat="45.22594" lon="-0.58562">
        <ele>3</ele>
        <time>2023-01-09T09:46:52Z</time>
      </trkpt>
      <trkpt lat="45.22618" lon="-0.58533">
        <ele>4</ele>
        <time>2023-01-09T09:47:34Z</time>
      </trkpt>
      <trkpt lat="45.22644" lon="-0.58509">
        <ele>5</ele>
        <time>2023-01-09T09:48:15Z</time>
      </trkpt>
      <trkpt lat="45.2264" lon="-0.5848">
        <ele>4</ele>
        <time>2023-01-09T09:48:43Z</time>
      </trkpt>
      <trkpt lat="45.22633" lon="-0.58439">
        <ele>3</ele>
        <time>2023-01-09T09:49:23Z</time>
      </trkpt>
      <trkpt lat="45.22623" lon="-0.58379">
        <ele>2</ele>
        <time>2023-01-09T09:50:21Z</time>
      </trkpt>
      <trkpt lat="45.22736" lon="-0.58089">
        <ele>4</ele>
        <time>2023-01-09T09:55:32Z</time>
      </trkpt>
      <trkpt lat="45.22746" lon="-0.58045">
        <ele>4</ele>
        <time>2023-01-09T09:56:16Z</time>
      </trkpt>
      <trkpt lat="45.22772" lon="-0.58002">
        <ele>3</ele>
        <time>2023-01-09T09:57:09Z</time>
      </trkpt>
      <trkpt lat="45.22814" lon="-0.57952">
        <ele>3</ele>
        <time>2023-01-09T09:58:22Z</time>
      </trkpt>
      <trkpt lat="45.22873" lon="-0.5792">
        <ele>4</ele>
        <time>2023-01-09T09:59:46Z</time>
      </trkpt>
      <trkpt lat="45.22888" lon="-0.57857">
        <ele>6</ele>
        <time>2023-01-09T10:00:49Z</time>
      </trkpt>
      <trkpt lat="45.229" lon="-0.57773">
        <ele>6</ele>
        <time>2023-01-09T10:02:09Z</time>
      </trkpt>
      <trkpt lat="45.22884" lon="-0.57653">
        <ele>6</ele>
        <time>2023-01-09T10:04:04Z</time>
      </trkpt>
      <trkpt lat="45.22869" lon="-0.57568">
        <ele>7</ele>
        <time>2023-01-09T10:05:26Z</time>
      </trkpt>
      <trkpt lat="45.22871" lon="-0.5752">
        <ele>8</ele>
        <time>2023-01-09T10:06:12Z</time>
      </trkpt>
      <trkpt lat="45.22873" lon="-0.5749">
        <ele>8</ele>
        <time>2023-01-09T10:06:40Z</time>
      </trkpt>
      <trkpt lat="45.2283" lon="-0.57471">
        <ele>8</ele>
        <time>2023-01-09T10:07:40Z</time>
      </trkpt>
      <trkpt lat="45.22768" lon="-0.57456">
        <ele>6</ele>
        <time>2023-01-09T10:09:04Z</time>
      </trkpt>
      <trkpt lat="45.22753" lon="-0.57444">
        <ele>6</ele>
        <time>2023-01-09T10:09:27Z</time>
      </trkpt>
      <trkpt lat="45.22675" lon="-0.57467">
        <ele>9</ele>
        <time>2023-01-09T10:11:13Z</time>
      </trkpt>
      <trkpt lat="45.22612" lon="-0.57493">
        <ele>10</ele>
        <time>2023-01-09T10:12:41Z</time>
      </trkpt>
      <trkpt lat="45.2256" lon="-0.57527">
        <ele>9</ele>
        <time>2023-01-09T10:13:57Z</time>
      </trkpt>
      <trkpt lat="45.22545" lon="-0.5749">
        <ele>8</ele>
        <time>2023-01-09T10:14:37Z</time>
      </trkpt>
      <trkpt lat="45.22535" lon="-0.57452">
        <ele>8</ele>
        <time>2023-01-09T10:15:15Z</time>
      </trkpt>
      <trkpt lat="45.22527" lon="-0.57398">
        <ele>9</ele>
        <time>2023-01-09T10:16:07Z</time>
      </trkpt>
      <trkpt lat="45.22494" lon="-0.57392">
        <ele>8</ele>
        <time>2023-01-09T10:16:52Z</time>
      </trkpt>
      <trkpt lat="45.22476" lon="-0.57364">
        <ele>9</ele>
        <time>2023-01-09T10:17:27Z</time>
      </trkpt>
    </trkseg>
  </trk>
</gpx>